createdAt,value
2018-10-16T00:02:06.395Z,8.31
2018-10-16T00:04:38.522Z,8.35
2018-10-16T00:07:10.585Z,8.40
2018-10-16T00:09:42.622Z,8.37
2018-10-16T00:12:14.673Z,8.30
2018-10-16T00:14:46.739Z,8.22
2018-10-16T00:17:18.811Z,8.16
2018-10-16T00:19:50.839Z,8.21
2018-10-16T00:22:22.883Z,8.19
2018-10-16T00:24:54.909Z,8.08
2018-10-16T00:27:26.954Z,7.96
2018-10-16T00:29:59.029Z,7.93
2018-10-16T00:32:31.131Z,7.89
2018-10-16T00:35:03.141Z,8.02
2018-10-16T00:37:35.452Z,8.13
2018-10-16T00:40:08.439Z,8.07
2018-10-16T00:42:40.563Z,8.07
2018-10-16T00:45:12.659Z,8.20
2018-10-16T00:47:44.815Z,8.10
2018-10-16T00:50:16.836Z,8.11
2018-10-16T00:52:48.908Z,8.14
2018-10-16T00:55:20.968Z,8.10
2018-10-16T00:57:53.074Z,8.04
2018-10-16T01:00:25.144Z,7.95
2018-10-16T01:02:57.238Z,7.93
2018-10-16T01:05:29.278Z,7.98
2018-10-16T01:08:01.402Z,7.91
2018-10-16T01:10:33.438Z,7.82
2018-10-16T01:13:05.522Z,7.68
2018-10-16T01:15:37.595Z,7.66
2018-10-16T01:18:09.664Z,7.58
2018-10-16T01:20:41.684Z,7.83
2018-10-16T01:23:13.751Z,7.66
2018-10-16T01:25:45.823Z,7.59
2018-10-16T01:28:17.896Z,7.63
2018-10-16T01:30:49.955Z,7.57
2018-10-16T01:33:21.996Z,7.58
2018-10-16T01:35:54.072Z,7.61
2018-10-16T01:38:26.103Z,7.66
2018-10-16T01:40:58.120Z,7.65
2018-10-16T01:43:30.149Z,7.57
2018-10-16T01:46:02.233Z,7.47
2018-10-16T01:48:34.307Z,7.39
2018-10-16T01:51:06.671Z,7.29
2018-10-16T01:53:38.714Z,7.33
2018-10-16T01:56:10.752Z,7.33
2018-10-16T01:58:42.820Z,7.34
2018-10-16T02:01:14.880Z,7.40
2018-10-16T02:03:46.966Z,7.27
2018-10-16T02:06:19.072Z,7.28
2018-10-16T02:08:51.132Z,7.33
2018-10-16T02:11:23.160Z,7.31
2018-10-16T02:13:55.223Z,7.35
2018-10-16T02:16:28.109Z,7.31
2018-10-16T02:19:00.188Z,7.27
2018-10-16T02:21:32.237Z,7.28
2018-10-16T02:24:04.348Z,7.23
2018-10-16T02:26:36.440Z,7.21
2018-10-16T02:29:08.458Z,7.24
2018-10-16T02:31:40.483Z,7.20
2018-10-16T02:34:13.155Z,7.32
2018-10-16T02:36:45.185Z,7.27
2018-10-16T02:39:17.254Z,7.17
2018-10-16T02:41:49.303Z,7.06
2018-10-16T02:44:21.334Z,7.13
2018-10-16T02:46:53.329Z,7.14
2018-10-16T02:49:25.408Z,7.21
2018-10-16T02:51:57.469Z,7.21
2018-10-16T02:54:29.533Z,7.29
2018-10-16T02:57:01.560Z,7.34
2018-10-16T02:59:33.608Z,7.23
2018-10-16T03:02:05.978Z,7.10
2018-10-16T03:04:38.035Z,7.24
2018-10-16T03:07:10.074Z,7.15
2018-10-16T03:09:42.192Z,7.12
2018-10-16T03:12:14.300Z,7.00
2018-10-16T03:14:46.311Z,7.00
2018-10-16T03:17:18.360Z,6.96
2018-10-16T03:19:50.399Z,6.93
2018-10-16T03:22:22.454Z,6.92
2018-10-16T03:24:54.528Z,6.81
2018-10-16T03:27:26.576Z,6.95
2018-10-16T03:29:58.614Z,6.98
2018-10-16T03:32:30.669Z,6.96
2018-10-16T03:35:02.747Z,6.88
2018-10-16T03:37:34.935Z,6.89
2018-10-16T03:40:07.542Z,6.92
2018-10-16T03:42:40.516Z,6.91
2018-10-16T03:45:12.888Z,6.84
2018-10-16T03:47:44.956Z,6.83
2018-10-16T03:50:17.106Z,6.79
2018-10-16T03:52:49.262Z,6.62
2018-10-16T03:55:21.365Z,6.66
2018-10-16T03:57:53.464Z,6.80
2018-10-16T04:00:25.653Z,6.87
2018-10-16T04:02:57.862Z,6.87
2018-10-16T04:05:29.978Z,6.71
2018-10-16T04:08:02.151Z,6.62
2018-10-16T04:10:34.366Z,6.59
2018-10-16T04:13:06.622Z,6.61
2018-10-16T04:15:38.852Z,6.42
2018-10-16T04:18:11.101Z,6.40
2018-10-16T04:20:43.298Z,6.55
2018-10-16T04:23:15.555Z,6.53
2018-10-16T04:25:47.821Z,6.53
2018-10-16T04:28:20.085Z,6.52
2018-10-16T04:30:52.314Z,6.58
2018-10-16T04:33:24.778Z,6.55
2018-10-16T04:35:56.910Z,6.61
2018-10-16T04:38:29.104Z,6.70
2018-10-16T04:41:01.255Z,6.72
2018-10-16T04:43:33.407Z,6.69
2018-10-16T04:46:05.657Z,6.77
2018-10-16T04:48:37.795Z,6.67
2018-10-16T04:51:10.001Z,6.59
2018-10-16T04:53:42.095Z,6.38
2018-10-16T04:56:14.363Z,6.32
2018-10-16T04:58:46.575Z,6.24
2018-10-16T05:01:18.728Z,6.21
2018-10-16T05:03:50.894Z,6.24
2018-10-16T05:06:29.980Z,6.32
2018-10-16T05:09:02.244Z,6.34
2018-10-16T05:12:05.589Z,6.24
2018-10-16T05:14:37.963Z,6.14
2018-10-16T05:17:10.226Z,6.20
2018-10-16T05:19:42.474Z,6.20
2018-10-16T05:22:14.868Z,6.34
2018-10-16T05:24:47.057Z,6.39
2018-10-16T05:27:19.321Z,6.35
2018-10-16T05:29:51.613Z,6.34
2018-10-16T05:32:23.954Z,6.46
2018-10-16T05:34:56.113Z,6.46
2018-10-16T05:37:28.337Z,6.39
2018-10-16T05:40:00.566Z,6.36
2018-10-16T05:42:32.725Z,6.37
2018-10-16T05:45:05.955Z,6.41
2018-10-16T05:47:38.558Z,6.49
2018-10-16T05:50:11.141Z,6.46
2018-10-16T05:52:43.268Z,6.60
2018-10-16T05:55:15.376Z,6.58
2018-10-16T05:57:47.599Z,6.56
2018-10-16T06:00:31.219Z,6.52
2018-10-16T06:03:04.852Z,6.63
2018-10-16T06:05:37.133Z,6.74
2018-10-16T06:08:09.383Z,6.76
2018-10-16T06:10:41.598Z,6.77
2018-10-16T06:13:13.691Z,6.83
2018-10-16T06:15:45.845Z,7.03
2018-10-16T06:18:18.100Z,7.17
2018-10-16T06:20:50.437Z,7.20
2018-10-16T06:23:22.811Z,7.15
2018-10-16T06:25:55.060Z,7.21
2018-10-16T06:28:27.845Z,7.23
2018-10-16T06:31:00.021Z,7.29
2018-10-16T06:33:32.468Z,7.35
2018-10-16T06:36:04.894Z,7.47
2018-10-16T06:38:39.437Z,7.55
2018-10-16T06:41:12.151Z,7.63
2018-10-16T06:43:44.202Z,7.71
2018-10-16T06:46:16.666Z,7.81
2018-10-16T06:48:49.077Z,7.90
2018-10-16T06:51:21.007Z,7.92
2018-10-16T06:53:53.198Z,8.06
2018-10-16T06:56:25.492Z,8.19
2018-10-16T06:58:57.612Z,8.32
2018-10-16T07:01:29.783Z,8.43
2018-10-16T07:04:02.022Z,8.60
2018-10-16T07:06:34.644Z,8.63
2018-10-16T07:09:07.532Z,8.69
2018-10-16T07:11:39.722Z,8.82
2018-10-16T07:14:11.956Z,8.90
2018-10-16T07:16:44.142Z,8.97
2018-10-16T07:19:16.289Z,9.13
2018-10-16T07:21:48.491Z,9.18
2018-10-16T07:24:20.757Z,9.33
2018-10-16T07:26:54.055Z,9.57
2018-10-16T07:29:26.112Z,10.22
2018-10-16T07:31:58.235Z,11.10
2018-10-16T07:34:30.328Z,11.64
2018-10-16T07:37:02.547Z,11.77
2018-10-16T07:39:34.769Z,12.02
2018-10-16T07:42:06.940Z,12.40
2018-10-16T07:44:39.054Z,12.40
2018-10-16T07:47:11.145Z,12.52
2018-10-16T07:49:43.188Z,12.75
2018-10-16T07:52:15.407Z,12.76
2018-10-16T07:54:47.488Z,12.67
2018-10-16T07:57:19.616Z,13.02
2018-10-16T07:59:51.684Z,13.01
2018-10-16T08:02:23.938Z,13.48
2018-10-16T08:04:56.088Z,13.50
2018-10-16T08:07:28.317Z,13.87
2018-10-16T08:10:00.576Z,14.37
2018-10-16T08:12:32.860Z,14.36
2018-10-16T08:15:06.142Z,14.52
2018-10-16T08:17:38.688Z,14.72
2018-10-16T08:20:10.904Z,14.61
2018-10-16T08:22:43.147Z,14.73
2018-10-16T08:25:15.438Z,14.94
2018-10-16T08:27:47.662Z,14.96
2018-10-16T08:30:20.001Z,15.19
2018-10-16T08:32:52.555Z,15.46
2018-10-16T08:35:24.713Z,15.93
2018-10-16T08:38:41.317Z,16.33
2018-10-16T08:41:13.938Z,16.40
2018-10-16T08:43:57.751Z,16.86
2018-10-16T08:46:41.532Z,17.22
2018-10-16T08:49:25.249Z,17.16
2018-10-16T08:51:58.101Z,17.50
2018-10-16T08:54:30.337Z,17.80
2018-10-16T08:57:02.577Z,17.68
2018-10-16T08:59:34.711Z,18.14
2018-10-16T09:02:06.940Z,18.43
2018-10-16T09:04:39.236Z,18.08
2018-10-16T09:07:11.467Z,18.15
2018-10-16T09:09:43.557Z,18.32
2018-10-16T09:12:15.649Z,18.15
2018-10-16T09:14:47.821Z,18.41
2018-10-16T09:17:19.924Z,18.59
2018-10-16T09:19:52.133Z,18.16
2018-10-16T09:22:24.203Z,18.71
2018-10-16T09:24:56.373Z,18.69
2018-10-16T09:27:28.540Z,18.88
2018-10-16T09:30:00.713Z,19.07
2018-10-16T09:32:32.779Z,19.10
2018-10-16T09:35:06.180Z,18.88
2018-10-16T09:37:38.804Z,19.06
2018-10-16T09:40:11.909Z,19.24
2018-10-16T09:42:44.093Z,18.89
2018-10-16T09:45:16.178Z,19.36
2018-10-16T09:47:48.458Z,19.25
2018-10-16T09:50:20.559Z,19.27
2018-10-16T09:52:52.729Z,19.62
2018-10-16T09:55:24.963Z,19.75
2018-10-16T09:57:57.220Z,19.64
2018-10-16T10:00:35.244Z,19.82
2018-10-16T10:03:07.476Z,20.03
2018-10-16T10:05:39.677Z,19.69
2018-10-16T10:08:11.945Z,19.72
2018-10-16T10:10:44.138Z,19.30
2018-10-16T10:13:16.280Z,19.14
2018-10-16T10:15:48.429Z,18.68
2018-10-16T10:18:20.522Z,19.44
2018-10-16T10:20:52.665Z,19.35
2018-10-16T10:23:24.907Z,19.08
2018-10-16T10:25:57.238Z,19.68
2018-10-16T10:28:29.405Z,20.30
2018-10-16T10:31:01.684Z,20.24
2018-10-16T10:33:33.837Z,20.11
2018-10-16T10:36:05.981Z,20.32
2018-10-16T10:38:38.140Z,20.59
2018-10-16T10:41:10.680Z,20.95
2018-10-16T10:43:43.058Z,20.71
2018-10-16T10:46:15.300Z,20.76
2018-10-16T10:48:47.439Z,21.05
2018-10-16T10:51:19.935Z,21.01
2018-10-16T10:53:51.796Z,20.79
2018-10-16T10:56:24.057Z,20.57
2018-10-16T10:58:56.485Z,20.64
2018-10-16T11:01:28.664Z,21.01
2018-10-16T11:04:00.786Z,21.21
2018-10-16T11:06:32.844Z,21.11
2018-10-16T11:09:07.233Z,20.79
2018-10-16T11:11:39.507Z,20.50
2018-10-16T11:14:11.639Z,20.39
2018-10-16T11:16:43.772Z,21.03
2018-10-16T11:19:15.911Z,20.75
2018-10-16T11:21:48.046Z,20.79
2018-10-16T11:24:20.237Z,21.07
2018-10-16T11:26:52.405Z,21.13
2018-10-16T11:29:24.647Z,21.45
2018-10-16T11:31:56.728Z,21.00
2018-10-16T11:34:28.909Z,20.99
2018-10-16T11:37:01.149Z,21.05
2018-10-16T11:39:33.220Z,21.33
2018-10-16T11:42:05.325Z,21.45
2018-10-16T11:44:37.361Z,21.38
2018-10-16T11:47:09.436Z,21.14
2018-10-16T11:49:41.504Z,21.31
2018-10-16T11:52:13.625Z,21.53
2018-10-16T11:54:45.667Z,21.69
2018-10-16T11:57:17.816Z,21.65
2018-10-16T11:59:49.883Z,21.72
2018-10-16T12:02:21.956Z,21.82
2018-10-16T12:04:54.118Z,21.90
2018-10-16T12:07:26.190Z,22.01
2018-10-16T12:09:58.252Z,22.22
2018-10-16T12:12:30.402Z,22.02
2018-10-16T12:15:02.521Z,21.93
2018-10-16T12:17:39.375Z,22.07
2018-10-16T12:20:17.986Z,21.76
2018-10-16T12:22:50.137Z,21.74
2018-10-16T12:25:22.398Z,21.69
2018-10-16T12:27:54.491Z,21.94
2018-10-16T12:30:26.631Z,21.58
2018-10-16T12:32:58.808Z,21.54
2018-10-16T12:35:30.837Z,21.43
2018-10-16T12:38:02.903Z,21.15
2018-10-16T12:40:35.080Z,21.21
2018-10-16T12:43:07.552Z,21.38
2018-10-16T12:45:39.618Z,21.23
2018-10-16T12:48:11.770Z,21.41
2018-10-16T12:50:43.871Z,21.87
2018-10-16T12:53:16.074Z,22.09
2018-10-16T12:55:48.109Z,22.00
2018-10-16T12:58:20.388Z,21.86
2018-10-16T13:00:52.560Z,22.09
2018-10-16T13:03:24.684Z,21.74
2018-10-16T13:05:56.843Z,21.62
2018-10-16T13:08:28.951Z,21.30
2018-10-16T13:11:01.152Z,21.48
2018-10-16T13:13:33.290Z,21.76
2018-10-16T13:16:05.478Z,21.79
2018-10-16T13:18:37.525Z,21.50
2018-10-16T13:21:09.577Z,21.94
2018-10-16T13:23:41.864Z,22.26
2018-10-16T13:26:14.184Z,22.35
2018-10-16T13:28:46.179Z,23.02
2018-10-16T13:31:18.243Z,23.90
2018-10-16T13:33:50.415Z,25.04
2018-10-16T13:36:22.495Z,25.99
2018-10-16T13:38:54.580Z,25.56
2018-10-16T13:41:26.674Z,26.32
2018-10-16T13:43:58.794Z,26.24
2018-10-16T13:46:30.868Z,26.57
2018-10-16T13:49:03.158Z,27.28
2018-10-16T13:51:35.232Z,26.74
2018-10-16T13:54:07.318Z,27.53
2018-10-16T13:56:39.472Z,27.79
2018-10-16T13:59:11.616Z,27.19
2018-10-16T14:01:43.739Z,27.51
2018-10-16T14:04:15.907Z,27.60
2018-10-16T14:06:48.003Z,26.55
2018-10-16T14:09:20.080Z,25.87
2018-10-16T14:11:52.172Z,25.89
2018-10-16T14:14:24.232Z,24.13
2018-10-16T14:16:56.275Z,23.55
2018-10-16T14:19:28.388Z,22.95
2018-10-16T14:22:00.541Z,21.81
2018-10-16T14:24:32.589Z,21.63
2018-10-16T14:27:04.818Z,22.01
2018-10-16T14:29:36.876Z,22.02
2018-10-16T14:32:09.093Z,21.94
2018-10-16T14:34:41.278Z,21.73
2018-10-16T14:37:13.271Z,21.73
2018-10-16T14:39:45.338Z,21.82
2018-10-16T14:42:17.409Z,21.86
2018-10-16T14:44:49.540Z,21.50
2018-10-16T14:47:21.599Z,21.49
2018-10-16T14:49:53.679Z,21.49
2018-10-16T14:52:25.833Z,21.35
2018-10-16T14:54:57.948Z,21.31
2018-10-16T14:57:30.117Z,21.33
2018-10-16T15:00:02.400Z,21.13
2018-10-16T15:02:34.549Z,21.11
2018-10-16T15:05:08.246Z,20.96
2018-10-16T15:07:40.427Z,21.10
2018-10-16T15:10:12.718Z,21.11
2018-10-16T15:12:44.756Z,20.81
2018-10-16T15:15:16.887Z,20.62
2018-10-16T15:17:48.959Z,20.52
2018-10-16T15:20:21.102Z,20.37
2018-10-16T15:22:53.187Z,20.21
2018-10-16T15:25:25.288Z,20.07
2018-10-16T15:27:58.454Z,20.13
2018-10-16T15:30:30.568Z,20.12
2018-10-16T15:33:02.666Z,19.86
2018-10-16T15:35:34.842Z,19.71
2018-10-16T15:38:07.000Z,19.56
2018-10-16T15:40:39.074Z,19.48
2018-10-16T15:43:11.160Z,19.27
2018-10-16T15:45:43.248Z,19.24
2018-10-16T15:48:15.481Z,19.16
2018-10-16T15:50:47.495Z,19.01
2018-10-16T15:53:19.550Z,18.83
2018-10-16T15:55:51.690Z,18.75
2018-10-16T15:58:23.721Z,18.54
2018-10-16T16:00:55.829Z,18.36
2018-10-16T16:03:27.956Z,18.29
2018-10-16T16:06:00.102Z,18.12
2018-10-16T16:08:32.435Z,17.97
2018-10-16T16:11:05.649Z,17.73
2018-10-16T16:13:37.919Z,17.65
2018-10-16T16:16:10.262Z,17.51
2018-10-16T16:18:43.454Z,17.32
2018-10-16T16:21:15.508Z,17.12
2018-10-16T16:23:47.591Z,17.03
2018-10-16T16:26:19.701Z,16.93
2018-10-16T16:28:51.812Z,16.79
2018-10-16T16:31:23.988Z,16.53
2018-10-16T16:33:56.054Z,16.34
2018-10-16T16:36:28.142Z,16.24
2018-10-16T16:39:00.258Z,16.11
2018-10-16T16:41:32.346Z,16.08
2018-10-16T16:44:04.792Z,15.99
2018-10-16T16:46:37.208Z,15.96
2018-10-16T16:49:09.378Z,15.80
2018-10-16T16:51:41.516Z,15.66
2018-10-16T16:54:13.619Z,15.55
2018-10-16T16:56:45.687Z,15.45
2018-10-16T16:59:17.743Z,15.39
2018-10-16T17:01:49.855Z,15.31
2018-10-16T17:04:22.252Z,15.25
2018-10-16T17:06:54.296Z,15.19
2018-10-16T17:09:26.429Z,15.13
2018-10-16T17:11:58.642Z,15.06
2018-10-16T17:14:30.602Z,15.05
2018-10-16T17:17:02.774Z,15.03
2018-10-16T17:19:34.874Z,15.07
2018-10-16T17:22:06.943Z,14.95
2018-10-16T17:24:39.046Z,14.81
2018-10-16T17:27:11.069Z,14.63
2018-10-16T17:29:43.200Z,14.40
2018-10-16T17:32:15.490Z,14.35
2018-10-16T17:34:47.583Z,14.43
2018-10-16T17:37:19.662Z,14.46
2018-10-16T17:39:51.791Z,14.36
2018-10-16T17:42:23.974Z,14.15
2018-10-16T17:44:56.150Z,14.00
2018-10-16T17:47:28.319Z,13.95
2018-10-16T17:50:00.378Z,13.93
2018-10-16T17:52:32.572Z,13.98
2018-10-16T17:55:05.336Z,13.95
2018-10-16T17:57:37.649Z,13.95
2018-10-16T18:00:12.647Z,13.85
2018-10-16T18:02:45.118Z,13.78
2018-10-16T18:05:17.268Z,13.76
2018-10-16T18:07:49.364Z,13.69
2018-10-16T18:10:21.432Z,13.69
2018-10-16T18:12:53.596Z,13.62
2018-10-16T18:15:25.741Z,13.47
2018-10-16T18:17:57.806Z,13.34
2018-10-16T18:20:29.929Z,13.23
2018-10-16T18:23:03.099Z,13.32
2018-10-16T18:25:36.213Z,13.45
2018-10-16T18:28:08.423Z,13.42
2018-10-16T18:30:40.504Z,13.38
2018-10-16T18:33:12.644Z,13.37
2018-10-16T18:35:44.674Z,13.29
2018-10-16T18:38:16.761Z,13.28
2018-10-16T18:40:49.848Z,13.35
2018-10-16T18:43:23.852Z,13.47
2018-10-16T18:45:57.100Z,13.50
2018-10-16T18:48:29.364Z,13.50
2018-10-16T18:51:01.472Z,13.45
2018-10-16T18:53:33.555Z,13.44
2018-10-16T18:56:06.414Z,13.46
2018-10-16T18:58:39.655Z,13.32
2018-10-16T19:01:11.793Z,13.25
2018-10-16T19:03:44.174Z,13.24
2018-10-16T19:06:16.301Z,13.26
2018-10-16T19:08:48.432Z,13.26
2018-10-16T19:11:20.526Z,13.17
2018-10-16T19:13:52.694Z,13.08
2018-10-16T19:16:24.728Z,13.10
2018-10-16T19:18:56.894Z,13.20
2018-10-16T19:21:28.925Z,13.23
2018-10-16T19:24:00.987Z,13.23
2018-10-16T19:26:33.120Z,13.24
2018-10-16T19:29:05.236Z,13.15
2018-10-16T19:31:37.327Z,13.11
2018-10-16T19:34:09.396Z,13.09
2018-10-16T19:36:41.459Z,13.07
2018-10-16T19:39:14.263Z,13.08
2018-10-16T19:41:46.296Z,13.08
2018-10-16T19:44:18.372Z,13.05
2018-10-16T19:46:50.524Z,13.12
2018-10-16T19:49:22.611Z,13.19
2018-10-16T19:51:54.800Z,13.23
2018-10-16T19:54:26.971Z,13.25
2018-10-16T19:56:59.079Z,13.21
2018-10-16T19:59:31.171Z,13.12
2018-10-16T20:02:03.708Z,13.03
2018-10-16T20:04:36.264Z,12.94
2018-10-16T20:07:09.037Z,12.89
2018-10-16T20:09:41.238Z,12.90
2018-10-16T20:12:13.316Z,12.81
2018-10-16T20:14:45.396Z,12.76
2018-10-16T20:17:17.820Z,12.79
2018-10-16T20:19:49.984Z,12.94
2018-10-16T20:22:22.180Z,12.94
2018-10-16T20:24:54.373Z,12.89
2018-10-16T20:27:26.371Z,12.89
2018-10-16T20:29:59.586Z,12.91
2018-10-16T20:32:31.655Z,12.91
2018-10-16T20:35:03.878Z,12.80
2018-10-16T20:37:36.012Z,12.60
2018-10-16T20:40:08.289Z,12.41
2018-10-16T20:42:40.359Z,12.33
2018-10-16T20:45:12.421Z,12.18
2018-10-16T20:47:44.609Z,12.00
2018-10-16T20:50:16.657Z,11.85
2018-10-16T20:52:48.836Z,11.70
2018-10-16T20:55:20.985Z,11.56
2018-10-16T20:57:53.124Z,11.56
2018-10-16T21:00:25.239Z,11.61
2018-10-16T21:02:57.409Z,11.58
2018-10-16T21:05:30.385Z,11.56
2018-10-16T21:08:02.471Z,11.38
2018-10-16T21:10:34.624Z,11.29
2018-10-16T21:13:06.786Z,11.18
2018-10-16T21:15:38.855Z,11.14
2018-10-16T21:18:10.932Z,11.28
2018-10-16T21:20:42.987Z,11.43
2018-10-16T21:23:15.149Z,11.41
2018-10-16T21:25:47.087Z,11.40
2018-10-16T21:28:19.201Z,11.44
2018-10-16T21:30:51.291Z,11.36
2018-10-16T21:33:23.670Z,11.33
2018-10-16T21:35:55.717Z,11.25
2018-10-16T21:38:27.777Z,11.10
2018-10-16T21:40:59.899Z,10.91
2018-10-16T21:43:31.996Z,10.89
2018-10-16T21:46:04.496Z,11.13
2018-10-16T21:48:36.531Z,11.06
2018-10-16T21:51:08.729Z,11.03
2018-10-16T21:53:40.787Z,10.94
2018-10-16T21:56:12.858Z,10.85
2018-10-16T21:58:44.931Z,10.64
2018-10-16T22:01:17.092Z,10.59
2018-10-16T22:03:49.159Z,10.46
2018-10-16T22:06:21.270Z,10.35
2018-10-16T22:08:53.278Z,10.30
2018-10-16T22:11:25.390Z,10.18
2018-10-16T22:13:57.439Z,10.22
2018-10-16T22:16:29.533Z,10.25
2018-10-16T22:19:01.617Z,10.24
2018-10-16T22:21:33.741Z,10.18
2018-10-16T22:24:05.852Z,10.21
2018-10-16T22:26:37.972Z,10.23
2018-10-16T22:29:10.127Z,10.49
2018-10-16T22:31:42.099Z,10.65
2018-10-16T22:34:14.170Z,10.69
2018-10-16T22:36:46.241Z,10.59
2018-10-16T22:39:18.324Z,10.49
2018-10-16T22:41:50.422Z,10.46
2018-10-16T22:44:23.505Z,10.47
2018-10-16T22:46:55.692Z,10.49
2018-10-16T22:49:27.710Z,10.58
2018-10-16T22:51:59.799Z,10.59
2018-10-16T22:54:31.839Z,10.66
2018-10-16T22:57:03.881Z,10.63
2018-10-16T22:59:35.988Z,10.66
2018-10-16T23:02:08.092Z,10.65
2018-10-16T23:04:40.179Z,10.58
2018-10-16T23:07:12.359Z,10.54
2018-10-16T23:09:44.370Z,10.48
2018-10-16T23:12:16.446Z,10.48
2018-10-16T23:14:48.489Z,10.44
2018-10-16T23:17:20.534Z,10.44
2018-10-16T23:19:52.624Z,10.45
2018-10-16T23:22:24.751Z,10.41
2018-10-16T23:24:56.904Z,10.39
2018-10-16T23:27:28.952Z,10.26
2018-10-16T23:30:01.065Z,10.27
2018-10-16T23:32:33.148Z,10.24
2018-10-16T23:35:05.504Z,10.34
2018-10-16T23:37:37.582Z,10.38
2018-10-16T23:40:09.654Z,10.38
2018-10-16T23:42:41.714Z,10.36
2018-10-16T23:45:13.789Z,10.24
2018-10-16T23:47:45.861Z,10.28
2018-10-16T23:50:17.918Z,10.21
2018-10-16T23:52:50.040Z,10.21
2018-10-16T23:55:22.149Z,10.10
2018-10-16T23:57:54.200Z,10.17
